VLM weather

Teniente Coronel Rafael Pabón Airport
Villamontes, Tarija Department, Bolivia

Public forecast

Using degrees Celsius for public forecast. Weather courtesy of forecast.io.

METAR (pilot weather report)

Report is more than 2 hours old.

Retrieved 2019/05/23 20:00 UTC (4 hours ago):

SLVM 232000Z 18008KT 9999 FEW023 BKN070 16/11 Q1020

TAF (pilot weather forecast)

Forecast is more than 12 hours old.

Closest forecast is Yacuiba Airport, 44.5 nm (82.5 km) SSW. Retrieved 2019/05/06 00:28 UTC (18 days ago):

TAF SLYA 062200Z 0700/0724 00000KT 9999 SCT015 SCT070 TX25/0719Z TN16 /0711Z BECMG 0704/0706 5000 DZ BKN005 BKN070 BECMG 0711/0713 9999 NSW SCT010 BKN070